South Bend, WA

1:35 AM PDT on August 30, 2015 (GMT -0700)
Alta Vista Hill | | Change Station
CLOSE
Current Station
Personal Weather Station
Location: South Bend, WA
Elevation: 152 ft
Nearby Weather Stations

Elev 152 ft 46.66 °N, 123.79 °W | Updated 6 minutes ago

Mostly Cloudy
Mostly Cloudy
57.6 °F
Feels Like 57.6 °F
N
7.0
Wind Variable Wind from West
Gusts 9.0 mph

Today
High -- | Low -- °F
--% Chance of Precip.
Yesterday
High -- | Low -- °F
Precip. -- in
6:32 AM 7:58 PM
Waxing Gibbous, 99% visible
Pressure 29.76 in
Visibility 3.0 miles
Clouds Few 1300 ft
Mostly Cloudy 2700 ft
Overcast 7500 ft
Dew Point 56 °F
Humidity 94%
Rainfall 0.13 in
Snow Depth Not available.
UV 0 out of 12
Pollen .50 out of 12
Air Quality Not available.
Flu Activity Not available.
SPECI KHQM 300824Z AUTO 19003KT 3SM RA BR FEW013 BKN027 OVC075 13/12 A2976 RMK AO2 P0026 T01330122
Pressure 29.76 in
Visibility 3.0 miles
Clouds Few 1300 ft
Mostly Cloudy 2700 ft
Overcast 7500 ft
Dew Point 56 °F
Humidity 94%
Rainfall 0.13 in
Snow Depth Not available.
UV 0 out of 12
Pollen .50 out of 12
Air Quality Not available.
Flu Activity Not available.
SPECI KHQM 300824Z AUTO 19003KT 3SM RA BR FEW013 BKN027 OVC075 13/12 A2976 RMK AO2 P0026 T01330122

10-Day Weather Forecast

×

Almanac

Astronomy

Aug. 30, 2015 Rise Set
Actual Time
Civil Twilight
Nautical Twilight
Astronomical Twilight
Moon
Length of Visible Light
Length of Day
Tomorrow will be .
, % of the Moon is Illuminated

Today's Extremes

State Highs State Lows

Community

WunderPhotos

Upload Photos

1,850,909 photos uploaded!

WunderBlogs® & News

Nearby

Air Quality

  Air Quality AQ Index Pollutant
Not available.

Snow Depth

Station Depth Elevation

Earthquake Activity

City Distance Mag. Time & Date
Minimum magnitude displayed is 2.5.

Coastal Water Temperatures

Place Temperature

Stations

Nearby Weather Stations

Station Location Temp. Windchill Dew Point Humidity Wind Precip. Elev Updated Type